Leesburg, Texas
Current Conditions -  °F | °C
As of 4:35 AM on Thursday 18 Dec 2014 (Local Time) from KOSA Reporting Station
Overcast Overcast  
Wind Chill: 36°   Ceiling: 500
Heat Index: 40°   Visibility: 4mi
Dew Point: 40°   Wind: 6mph
Humidity: 99%   Direction: 110°ESE
Pressure: 30.17"   Gusts: NA
Location:  32.99°N, 95.08°W
Report Text: KOSA 181035Z AUTO 11005KT 4SM OVC005 04/04 A3017 RMK AO1 T00430042
Loading
Personal Weather Stations






























Interactive Weather Map New forecast layout! Learn more

10-Day Weather Forecast

Advertisements
Track Severe Weather on mobile